Mount Aberdeen, Australia

1:22 PM AEST on April 30, 2017 (GMT +1000)
Delta | | Change Station

Elev 43 ft 20.02 °S, 148.19 °E | Updated 9 minutes ago

Overcast
Overcast
81.5 °F
Feels Like 84 °F
N
0.0
Wind Variable Wind from NW
Gusts 3.0 mph

Today
High -- | Low -- °F
--% Chance of Precip.
Yesterday
High -- | Low -- °F
Precip. -- in
Pressure 30.01 in
Visibility 6.2 miles
Clouds Mostly Cloudy 4400 ft
Overcast 4900 ft
Heat Index 84 °F
Dew Point 67 °F
Humidity 62%
Rainfall 0.00 in
Snow Depth Not available.
6:24 AM 5:46 PM
Waxing Crescent, 18% visible
METAR YBPN 300200Z AUTO 12010KT 9999 // BKN044 OVC049 24/20 Q1016
Pressure 30.01 in
Visibility 6.2 miles
Clouds Mostly Cloudy 4400 ft
Overcast 4900 ft
Heat Index 84 °F
Dew Point 67 °F
Humidity 62%
Rainfall 0.00 in
Snow Depth Not available.
6:24 AM 5:46 PM
Waxing Crescent, 18% visible
METAR YBPN 300200Z AUTO 12010KT 9999 // BKN044 OVC049 24/20 Q1016

Get Severe Weather Alerts

Thanks for signing up!

Be on the lookout for a verification email in your inbox.

You'll start receiving the daily forecast at 8 AM.

×

10-Day Weather Forecast

×

Almanac

Astronomy

Apr. 30, 2017 Rise Set
Actual Time
Civil Twilight
Nautical Twilight
Astronomical Twilight
Moon
Length of Visible Light
Length of Day
Tomorrow will be .
, % of the Moon is Illuminated

Today's Extremes

Country Highs Country Lows

Community

WunderPhotos

WunderBlog® & News

Nearby

Air Quality

  Air Quality AQ Index Pollutant
Not available.

Snow Depth

Station Depth Elevation

Earthquake Activity

City Distance Mag. Time & Date
Minimum magnitude displayed is 2.5.

Coastal Water Temperatures

Place Temperature

Stations

Nearby Weather Stations

Station Location Temp. Windchill Dew Point Humidity Wind Precip. Elev Updated Type